< < Back
Terminal Aerodrome Forecast


Current Version              Previous Versions:   1  2  3  4  5  6  7  8  9  

Terminal Aerodrome Forecast

005
FTUS42 KGSP 041500 AAA
TAFCLT
TAF AMD
KCLT 041500Z 0415/0512 33003KT P6SM BKN050
     FM041900 26006KT P6SM SCT060
     FM042300 24004KT P6SM FEW120
     FM050300 23003KT P6SM BKN060
     FM051000 30005KT P6SM SCT050=

Latest METAR

540
SAUS70 KWBC 050100 RRI
MTRCLT
METAR KCLT 050052Z 29003KT 10SM FEW085 16/07 A2964 RMK AO2 SLP032
T01560072


USA.gov is the U.S. government's official web portal to all federal, state and local government web resources and services.